createdAt,value
2022-08-16T00:01:18.878Z,10.23
2022-08-16T00:03:46.923Z,11.00
2022-08-16T00:06:15.442Z,14.20
2022-08-16T00:08:45.837Z,10.60
2022-08-16T00:11:15.366Z,10.93
2022-08-16T00:13:53.699Z,10.67
2022-08-16T00:17:05.388Z,10.90
2022-08-16T00:19:14.598Z,11.80
2022-08-16T00:21:43.410Z,14.90
2022-08-16T00:24:12.516Z,14.10
2022-08-16T00:26:44.539Z,14.23
2022-08-16T00:29:15.565Z,14.67
2022-08-16T00:32:01.671Z,15.23
2022-08-16T00:34:43.151Z,15.27
2022-08-16T00:37:21.123Z,15.87
2022-08-16T00:39:57.175Z,14.47
2022-08-16T00:42:32.425Z,15.43
2022-08-16T00:45:09.424Z,14.20
2022-08-16T00:47:49.071Z,15.27
2022-08-16T00:50:18.258Z,14.30
2022-08-16T00:52:51.072Z,16.63
2022-08-16T00:55:19.940Z,15.10
2022-08-16T00:57:59.723Z,14.40
2022-08-16T01:00:30.179Z,12.33
2022-08-16T01:03:00.496Z,11.53
2022-08-16T01:05:28.958Z,13.23
2022-08-16T01:07:58.528Z,12.50
2022-08-16T01:10:31.469Z,11.93
2022-08-16T01:13:01.755Z,12.47
2022-08-16T01:15:33.263Z,13.23
2022-08-16T01:18:04.488Z,13.53
2022-08-16T01:20:36.582Z,11.37
2022-08-16T01:23:08.438Z,12.10
2022-08-16T01:25:40.146Z,10.57
2022-08-16T01:28:09.390Z,13.13
2022-08-16T01:30:40.014Z,11.77
2022-08-16T01:33:19.272Z,11.07
2022-08-16T01:35:52.695Z,11.40
2022-08-16T01:38:25.694Z,12.20
2022-08-16T01:40:58.287Z,11.27
2022-08-16T01:43:31.125Z,12.33
2022-08-16T01:46:00.361Z,10.87
2022-08-16T01:48:48.826Z,12.47
2022-08-16T01:51:17.757Z,11.87
2022-08-16T01:53:54.665Z,11.50
2022-08-16T01:56:25.574Z,12.20
2022-08-16T01:58:53.863Z,14.97
2022-08-16T02:01:21.654Z,12.77
2022-08-16T02:03:50.711Z,12.47
2022-08-16T02:06:33.601Z,15.37
2022-08-16T02:09:05.232Z,12.93
2022-08-16T02:11:47.511Z,12.47
2022-08-16T02:14:18.447Z,13.80
2022-08-16T02:16:49.511Z,14.47
2022-08-16T02:19:20.082Z,14.80
2022-08-16T02:22:09.109Z,15.40
2022-08-16T02:24:46.013Z,16.47
2022-08-16T02:27:16.017Z,15.03
2022-08-16T02:29:44.129Z,15.40
2022-08-16T02:32:49.080Z,15.10
2022-08-16T02:35:03.746Z,16.03
2022-08-16T02:37:51.410Z,15.97
2022-08-16T02:40:20.150Z,14.80
2022-08-16T02:42:51.130Z,15.17
2022-08-16T02:45:20.658Z,14.77
2022-08-16T02:48:01.724Z,13.90
2022-08-16T02:50:54.493Z,13.17
2022-08-16T02:53:29.214Z,14.77
2022-08-16T02:55:59.210Z,14.10
2022-08-16T02:58:31.701Z,17.53
2022-08-16T03:01:00.245Z,16.93
2022-08-16T03:04:24.755Z,20.33
2022-08-16T03:06:42.227Z,16.27
2022-08-16T03:09:13.120Z,16.50
2022-08-16T03:11:43.665Z,17.37
2022-08-16T03:14:13.336Z,18.23
2022-08-16T03:16:59.852Z,18.20
2022-08-16T03:19:45.787Z,19.20
2022-08-16T03:22:27.839Z,17.50
2022-08-16T03:24:58.508Z,20.37
2022-08-16T03:27:31.062Z,17.40
2022-08-16T03:30:17.464Z,18.37
2022-08-16T03:32:47.360Z,17.70
2022-08-16T03:35:17.898Z,21.97
2022-08-16T03:38:01.625Z,17.13
2022-08-16T03:40:31.708Z,17.80
2022-08-16T03:43:19.847Z,18.10
2022-08-16T03:45:52.994Z,17.63
2022-08-16T03:48:37.050Z,23.20
2022-08-16T03:51:09.812Z,17.40
2022-08-16T03:53:41.618Z,19.33
2022-08-16T03:56:19.660Z,18.57
2022-08-16T03:58:49.802Z,17.03
2022-08-16T04:01:20.622Z,18.73
2022-08-16T04:03:48.575Z,16.90
2022-08-16T04:06:17.940Z,16.43
2022-08-16T04:08:48.414Z,17.33
2022-08-16T04:11:17.146Z,18.30
2022-08-16T04:14:01.402Z,18.80
2022-08-16T04:16:34.891Z,20.00
2022-08-16T04:19:04.567Z,22.03
2022-08-16T04:21:33.221Z,20.03
2022-08-16T04:24:03.083Z,20.53
2022-08-16T04:26:32.468Z,22.37
2022-08-16T04:29:15.262Z,22.20
2022-08-16T04:31:56.440Z,21.07
2022-08-16T04:34:27.168Z,20.03
2022-08-16T04:36:55.227Z,20.50
2022-08-16T04:39:24.596Z,19.57
2022-08-16T04:42:11.322Z,18.77
2022-08-16T04:44:54.447Z,18.40
2022-08-16T04:47:33.471Z,18.17
2022-08-16T04:50:04.834Z,19.43
2022-08-16T04:52:35.860Z,20.37
2022-08-16T04:55:08.593Z,19.27
2022-08-16T04:57:41.224Z,19.43
2022-08-16T05:00:31.751Z,18.83
2022-08-16T05:03:07.501Z,19.67
2022-08-16T05:05:45.453Z,19.77
2022-08-16T05:08:29.058Z,19.70
2022-08-16T05:11:00.205Z,19.37
2022-08-16T05:13:41.134Z,20.63
2022-08-16T05:16:11.796Z,19.27
2022-08-16T05:18:41.590Z,16.17
2022-08-16T05:21:12.580Z,21.63
2022-08-16T05:23:41.146Z,17.43
2022-08-16T05:26:20.164Z,17.77
2022-08-16T05:28:55.384Z,17.87
2022-08-16T05:31:24.085Z,16.63
2022-08-16T05:33:58.962Z,17.17
2022-08-16T05:36:33.921Z,17.87
2022-08-16T05:39:04.897Z,21.30
2022-08-16T05:41:32.929Z,18.87
2022-08-16T05:44:24.001Z,14.47
2022-08-16T05:46:53.744Z,16.93
2022-08-16T05:49:42.067Z,17.13
2022-08-16T05:52:13.780Z,18.27
2022-08-16T05:54:47.440Z,17.57
2022-08-16T05:57:17.883Z,17.87
2022-08-16T05:59:50.367Z,17.30
2022-08-16T06:02:29.908Z,18.17
2022-08-16T06:05:03.875Z,16.50
2022-08-16T06:07:32.420Z,16.10
2022-08-16T06:10:01.623Z,16.87
2022-08-16T06:12:31.216Z,14.90
2022-08-16T06:15:00.334Z,14.23
2022-08-16T06:17:42.900Z,12.85
2022-08-16T06:20:18.051Z,14.52
2022-08-16T06:22:47.809Z,14.50
2022-08-16T06:25:36.042Z,14.23
2022-08-16T06:28:08.804Z,15.90
2022-08-16T06:30:43.918Z,13.85
2022-08-16T06:33:19.634Z,13.88
2022-08-16T06:35:55.311Z,13.13
2022-08-16T06:38:33.936Z,13.75
2022-08-16T06:41:03.889Z,15.70
2022-08-16T06:43:32.536Z,13.80
2022-08-16T06:46:00.695Z,15.88
2022-08-16T06:48:32.527Z,16.70
2022-08-16T06:51:04.746Z,14.32
2022-08-16T06:53:35.779Z,16.77
2022-08-16T06:56:06.089Z,16.20
2022-08-16T06:58:43.595Z,16.80
2022-08-16T07:01:15.045Z,14.05
2022-08-16T07:03:55.457Z,12.98
2022-08-16T07:06:28.232Z,14.02
2022-08-16T07:08:57.042Z,17.08
2022-08-16T07:11:45.683Z,16.17
2022-08-16T07:14:25.040Z,15.73
2022-08-16T07:16:58.094Z,15.20
2022-08-16T07:20:01.765Z,13.68
2022-08-16T07:22:39.013Z,16.83
2022-08-16T07:25:05.059Z,15.88
2022-08-16T07:27:33.702Z,14.18
2022-08-16T07:30:04.582Z,15.00
2022-08-16T07:32:32.633Z,15.57
2022-08-16T07:35:02.969Z,15.30
2022-08-16T07:37:32.375Z,14.60
2022-08-16T07:40:00.683Z,14.82
2022-08-16T07:42:35.361Z,14.48
2022-08-16T07:45:03.659Z,20.80
2022-08-16T07:47:56.402Z,13.93
2022-08-16T07:50:56.041Z,14.40
2022-08-16T07:53:14.676Z,13.48
2022-08-16T07:55:47.815Z,13.88
2022-08-16T07:58:18.421Z,13.95
2022-08-16T08:01:10.979Z,16.02
2022-08-16T08:03:47.697Z,13.48
2022-08-16T08:06:17.677Z,13.63
2022-08-16T08:08:50.488Z,16.23
2022-08-16T08:11:21.478Z,14.55
2022-08-16T08:13:50.665Z,14.25
2022-08-16T08:16:19.956Z,15.05
2022-08-16T08:19:00.672Z,12.95
2022-08-16T08:22:01.115Z,14.60
2022-08-16T08:24:21.523Z,13.07
2022-08-16T08:26:50.165Z,13.60
2022-08-16T08:29:22.922Z,14.38
2022-08-16T08:31:53.698Z,13.82
2022-08-16T08:34:23.118Z,12.35
2022-08-16T08:36:54.266Z,13.85
2022-08-16T08:39:25.437Z,13.15
2022-08-16T08:41:53.839Z,12.05
2022-08-16T08:44:29.060Z,9.98
2022-08-16T08:47:01.387Z,9.88
2022-08-16T08:49:46.245Z,9.27
2022-08-16T08:52:34.915Z,9.23
2022-08-16T08:55:10.926Z,11.80
2022-08-16T08:57:40.596Z,11.25
2022-08-16T09:00:13.011Z,9.07
2022-08-16T09:02:42.192Z,9.25
2022-08-16T09:05:15.546Z,10.68
2022-08-16T09:08:00.959Z,9.40
2022-08-16T09:10:32.579Z,9.32
2022-08-16T09:13:02.265Z,8.27
2022-08-16T09:15:33.204Z,8.80
2022-08-16T09:18:02.051Z,6.82
2022-08-16T09:20:59.120Z,6.40
2022-08-16T09:23:29.330Z,5.97
2022-08-16T09:25:58.896Z,6.47
2022-08-16T09:29:06.819Z,5.82
2022-08-16T09:31:15.207Z,6.97
2022-08-16T09:33:44.303Z,6.65
2022-08-16T09:36:32.452Z,6.25
2022-08-16T09:39:03.786Z,6.50
2022-08-16T09:41:33.644Z,7.55
2022-08-16T09:45:12.351Z,7.65
2022-08-16T09:46:57.443Z,6.13
2022-08-16T09:49:26.376Z,6.90
2022-08-16T09:52:05.859Z,6.03
2022-08-16T09:54:34.144Z,6.78
2022-08-16T09:57:03.756Z,8.00
2022-08-16T09:59:38.724Z,6.72
2022-08-16T10:02:27.435Z,6.05
2022-08-16T10:04:56.176Z,6.20
2022-08-16T10:07:24.879Z,6.03
2022-08-16T10:09:56.074Z,6.35
2022-08-16T10:12:44.190Z,6.25
2022-08-16T10:15:15.885Z,7.78
2022-08-16T10:17:45.678Z,8.23
2022-08-16T10:20:30.892Z,6.88
2022-08-16T10:23:05.800Z,6.65
2022-08-16T10:27:20.420Z,6.20
2022-08-16T10:28:29.133Z,6.55
2022-08-16T10:30:59.082Z,7.00
2022-08-16T10:33:29.565Z,8.00
2022-08-16T10:36:03.285Z,6.60
2022-08-16T10:38:36.719Z,6.65
2022-08-16T10:41:06.750Z,10.90
2022-08-16T10:43:39.571Z,7.57
2022-08-16T10:46:39.278Z,6.80
2022-08-16T10:48:57.627Z,7.45
2022-08-16T10:51:33.412Z,6.47
2022-08-16T10:54:04.900Z,5.70
2022-08-16T10:56:55.614Z,6.18
2022-08-16T10:59:38.405Z,5.60
2022-08-16T11:02:58.724Z,6.00
2022-08-16T11:05:08.511Z,6.63
2022-08-16T11:07:45.597Z,6.03
2022-08-16T11:16:25.357Z,8.43
2022-08-16T11:19:03.901Z,6.95
2022-08-16T11:21:37.521Z,4.82
2022-08-16T11:24:39.709Z,8.63
2022-08-16T11:27:32.579Z,5.90
2022-08-16T11:29:58.100Z,6.03
2022-08-16T11:32:31.519Z,5.43
2022-08-16T11:35:14.369Z,5.90
2022-08-16T11:40:36.280Z,6.05
2022-08-16T11:43:04.852Z,6.15
2022-08-16T11:45:34.652Z,5.60
2022-08-16T11:48:04.252Z,6.75
2022-08-16T11:50:34.591Z,8.20
2022-08-16T11:53:03.886Z,7.40
2022-08-16T11:55:33.627Z,5.90
2022-08-16T11:58:07.006Z,7.40
2022-08-16T12:00:51.185Z,9.10
2022-08-16T12:03:34.606Z,9.03
2022-08-16T12:06:11.302Z,7.93
2022-08-16T12:08:55.619Z,5.90
2022-08-16T12:11:23.734Z,6.00
2022-08-16T12:13:54.651Z,5.97
2022-08-16T12:16:22.714Z,7.87
2022-08-16T12:18:52.163Z,11.03
2022-08-16T12:21:20.303Z,9.63
2022-08-16T12:23:50.710Z,9.57
2022-08-16T12:26:19.091Z,8.93
2022-08-16T12:28:55.868Z,8.60
2022-08-16T12:31:26.434Z,10.27
2022-08-16T12:33:57.968Z,17.17
2022-08-16T12:36:26.640Z,13.40
2022-08-16T12:38:58.860Z,10.30
2022-08-16T12:41:27.443Z,8.32
2022-08-16T12:44:01.331Z,8.00
2022-08-16T12:46:31.173Z,6.63
2022-08-16T12:49:01.255Z,11.40
2022-08-16T12:51:57.689Z,10.93
2022-08-16T12:54:20.123Z,15.85
2022-08-16T12:56:48.345Z,16.15
2022-08-16T12:59:20.520Z,21.08
2022-08-16T13:01:58.098Z,9.75
2022-08-16T13:04:31.442Z,14.38
2022-08-16T13:09:32.931Z,10.00
2022-08-16T13:12:19.363Z,11.45
2022-08-16T13:14:50.062Z,7.43
2022-08-16T13:17:20.375Z,5.82
2022-08-16T13:20:08.566Z,7.72
2022-08-16T13:22:38.039Z,10.80
2022-08-16T13:25:08.816Z,8.25
2022-08-16T13:28:02.987Z,6.20
2022-08-16T13:30:36.187Z,6.60
2022-08-16T13:33:11.466Z,5.53
2022-08-16T13:35:44.081Z,8.80
2022-08-16T13:38:24.855Z,6.28
2022-08-16T13:40:56.193Z,9.82
2022-08-16T13:43:24.874Z,7.28
2022-08-16T13:45:56.600Z,6.20
2022-08-16T13:48:26.177Z,7.90
2022-08-16T13:50:58.024Z,5.00
2022-08-16T13:53:30.981Z,5.47
2022-08-16T13:56:00.717Z,5.88
2022-08-16T13:58:36.150Z,4.38
2022-08-16T14:01:09.537Z,4.93
2022-08-16T14:03:38.019Z,5.82
2022-08-16T14:06:10.792Z,4.38
2022-08-16T14:08:41.949Z,7.95
2022-08-16T14:11:12.060Z,7.43
2022-08-16T14:13:40.613Z,3.70
2022-08-16T14:16:12.578Z,4.82
2022-08-16T14:18:52.585Z,8.23
2022-08-16T14:21:23.830Z,5.70
2022-08-16T14:23:52.641Z,6.93
2022-08-16T14:26:22.211Z,5.72
2022-08-16T14:28:56.168Z,5.38
2022-08-16T14:31:30.965Z,6.15
2022-08-16T14:34:02.038Z,6.60
2022-08-16T14:36:31.451Z,4.50
2022-08-16T14:38:59.980Z,10.55
2022-08-16T14:41:28.965Z,8.75
2022-08-16T14:43:58.657Z,4.47
2022-08-16T14:46:26.862Z,4.68
2022-08-16T14:48:55.906Z,8.90
2022-08-16T14:51:27.353Z,5.07
2022-08-16T14:53:57.231Z,6.32
2022-08-16T14:56:38.495Z,6.25
2022-08-16T14:59:11.167Z,6.18
2022-08-16T15:01:57.946Z,5.60
2022-08-16T15:04:32.500Z,5.10
2022-08-16T15:07:10.177Z,4.53
2022-08-16T15:09:44.854Z,6.38
2022-08-16T15:12:31.172Z,5.65
2022-08-16T15:15:04.581Z,5.65
2022-08-16T15:17:40.682Z,7.32
2022-08-16T15:20:09.342Z,6.90
2022-08-16T15:22:41.291Z,4.88
2022-08-16T15:25:13.627Z,3.88
2022-08-16T15:27:44.422Z,10.23
2022-08-16T15:30:59.715Z,4.15
2022-08-16T15:33:02.251Z,5.70
2022-08-16T15:35:30.528Z,6.07
2022-08-16T15:38:01.491Z,4.63
2022-08-16T15:40:57.804Z,7.00
2022-08-16T15:43:38.855Z,4.25
2022-08-16T15:46:54.192Z,8.88
2022-08-16T15:49:15.530Z,9.50
2022-08-16T15:51:45.696Z,10.35
2022-08-16T15:54:21.301Z,6.95
2022-08-16T15:57:09.659Z,4.80
2022-08-16T15:59:48.768Z,8.13
2022-08-16T16:02:29.462Z,4.30
2022-08-16T16:05:00.870Z,6.22
2022-08-16T16:07:30.452Z,6.20
2022-08-16T16:09:58.876Z,5.13
2022-08-16T16:15:16.823Z,8.65
2022-08-16T16:17:50.727Z,7.45
2022-08-16T16:20:19.461Z,6.50
2022-08-16T16:22:47.849Z,5.88
2022-08-16T16:25:17.867Z,4.00
2022-08-16T16:27:55.365Z,6.63
2022-08-16T16:30:37.274Z,5.55
2022-08-16T16:33:15.549Z,5.28
2022-08-16T16:35:56.625Z,7.22
2022-08-16T16:38:26.505Z,8.57
2022-08-16T16:40:55.156Z,5.50
2022-08-16T16:43:25.376Z,8.13
2022-08-16T16:45:54.232Z,10.85
2022-08-16T16:48:22.148Z,6.05
2022-08-16T16:50:58.455Z,10.43
2022-08-16T16:53:26.868Z,13.18
2022-08-16T16:55:59.594Z,15.30
2022-08-16T16:58:53.549Z,10.63
2022-08-16T17:01:35.010Z,12.15
2022-08-16T17:04:19.547Z,8.20
2022-08-16T17:06:53.352Z,6.45
2022-08-16T17:09:22.230Z,7.43
2022-08-16T17:11:55.498Z,7.60
2022-08-16T17:14:32.964Z,6.70
2022-08-16T17:17:04.152Z,9.98
2022-08-16T17:19:32.407Z,6.40
2022-08-16T17:22:00.433Z,11.30
2022-08-16T17:24:33.212Z,7.55
2022-08-16T17:27:08.027Z,8.13
2022-08-16T17:29:45.914Z,10.98
2022-08-16T17:32:44.555Z,8.93
2022-08-16T17:35:11.560Z,11.90
2022-08-16T17:37:51.678Z,6.85
2022-08-16T17:40:25.529Z,7.97
2022-08-16T17:43:10.427Z,6.53
2022-08-16T17:45:40.283Z,6.45
2022-08-16T17:48:08.595Z,6.93
2022-08-16T17:50:37.029Z,5.72
2022-08-16T17:53:06.100Z,6.43
2022-08-16T17:55:36.171Z,8.07
2022-08-16T17:58:20.138Z,7.43
2022-08-16T18:00:53.131Z,6.32
2022-08-16T18:04:06.547Z,8.73
2022-08-16T18:06:13.241Z,7.30
2022-08-16T18:08:42.747Z,6.05
2022-08-16T18:11:12.099Z,7.43
2022-08-16T18:13:43.286Z,6.97
2022-08-16T18:16:14.726Z,6.63
2022-08-16T18:18:43.061Z,8.27
2022-08-16T18:21:29.569Z,11.93
2022-08-16T18:23:57.566Z,9.00
2022-08-16T18:26:25.818Z,11.02
2022-08-16T18:28:54.080Z,9.68
2022-08-16T18:31:24.863Z,9.13
2022-08-16T18:33:55.645Z,7.70
2022-08-16T18:36:24.106Z,9.48
2022-08-16T18:38:52.485Z,8.38
2022-08-16T18:41:20.996Z,8.32
2022-08-16T18:44:23.571Z,8.77
2022-08-16T18:46:38.573Z,11.00
2022-08-16T18:49:07.204Z,9.25
2022-08-16T18:51:35.164Z,11.10
2022-08-16T18:54:03.383Z,7.93
2022-08-16T18:56:56.524Z,8.82
2022-08-16T18:59:19.527Z,8.35
2022-08-16T19:01:51.491Z,5.63
2022-08-16T19:04:50.420Z,8.07
2022-08-16T19:07:07.218Z,6.60
2022-08-16T19:09:38.694Z,7.18
2022-08-16T19:12:06.653Z,6.78
2022-08-16T19:14:34.536Z,8.70
2022-08-16T19:17:05.871Z,6.65
2022-08-16T19:19:33.716Z,6.90
2022-08-16T19:22:01.877Z,6.65
2022-08-16T19:24:29.938Z,8.07
2022-08-16T19:26:59.220Z,5.88
2022-08-16T19:29:29.794Z,6.32
2022-08-16T19:31:58.345Z,5.93
2022-08-16T19:34:27.557Z,8.95
2022-08-16T19:36:56.874Z,6.55
2022-08-16T19:39:28.111Z,4.45
2022-08-16T19:41:59.851Z,6.72
2022-08-16T19:44:28.986Z,5.10
2022-08-16T19:46:58.983Z,5.18
2022-08-16T19:49:28.437Z,7.00
2022-08-16T19:51:56.344Z,6.38
2022-08-16T19:54:24.098Z,5.03
2022-08-16T19:56:51.952Z,4.38
2022-08-16T19:59:39.504Z,5.03
2022-08-16T20:02:10.813Z,6.07
2022-08-16T20:05:04.346Z,4.60
2022-08-16T20:07:32.931Z,5.85
2022-08-16T20:10:01.180Z,5.03
2022-08-16T20:12:30.984Z,4.10
2022-08-16T20:14:59.387Z,4.70
2022-08-16T20:17:27.302Z,6.40
2022-08-16T20:19:55.509Z,4.53
2022-08-16T20:22:51.993Z,5.95
2022-08-16T20:25:16.244Z,6.15
2022-08-16T20:27:45.572Z,4.90
2022-08-16T20:30:14.930Z,4.45
2022-08-16T20:32:42.811Z,5.18
2022-08-16T20:35:12.260Z,6.50
2022-08-16T20:37:43.107Z,5.65
2022-08-16T20:40:28.519Z,4.90
2022-08-16T20:43:02.561Z,6.53
2022-08-16T20:45:30.627Z,4.97
2022-08-16T20:47:59.131Z,6.05
2022-08-16T20:50:27.717Z,4.60
2022-08-16T20:52:57.448Z,5.15
2022-08-16T20:55:28.807Z,5.65
2022-08-16T20:57:57.239Z,5.43
2022-08-16T21:00:25.128Z,5.47
2022-08-16T21:02:54.979Z,6.50
2022-08-16T21:05:31.195Z,8.30
2022-08-16T21:08:50.432Z,5.72
2022-08-16T21:10:56.510Z,6.28
2022-08-16T21:13:28.500Z,7.53
2022-08-16T21:15:57.695Z,9.02
2022-08-16T21:18:26.982Z,8.15
2022-08-16T21:20:56.503Z,7.68
2022-08-16T21:23:28.652Z,6.83
2022-08-16T21:26:00.580Z,8.10
2022-08-16T21:28:40.644Z,7.37
2022-08-16T21:31:12.079Z,6.22
2022-08-16T21:33:41.253Z,7.45
2022-08-16T21:36:11.197Z,8.05
2022-08-16T21:38:42.298Z,6.63
2022-08-16T21:41:13.395Z,6.57
2022-08-16T21:43:43.380Z,6.83
2022-08-16T21:46:13.897Z,7.40
2022-08-16T21:48:45.248Z,5.70
2022-08-16T21:51:15.472Z,9.10
2022-08-16T21:53:46.606Z,7.10
2022-08-16T21:56:19.554Z,5.13
2022-08-16T21:58:52.962Z,6.43
2022-08-16T22:01:23.837Z,6.60
2022-08-16T22:04:05.760Z,4.97
2022-08-16T22:06:45.746Z,7.77
2022-08-16T22:09:17.466Z,7.20
2022-08-16T22:11:45.829Z,6.20
2022-08-16T22:14:13.546Z,6.40
2022-08-16T22:16:44.120Z,6.20
2022-08-16T22:19:13.688Z,5.07
2022-08-16T22:21:41.822Z,4.97
2022-08-16T22:24:15.941Z,9.63
2022-08-16T22:26:45.265Z,7.13
2022-08-16T22:29:14.632Z,6.23
2022-08-16T22:31:43.549Z,7.43
2022-08-16T22:34:11.629Z,5.83
2022-08-16T22:36:40.245Z,6.20
2022-08-16T22:39:10.279Z,5.70
2022-08-16T22:41:38.993Z,5.60
2022-08-16T22:44:08.570Z,6.80
2022-08-16T22:46:37.814Z,6.33
2022-08-16T22:49:07.351Z,6.53
2022-08-16T22:51:36.077Z,6.83
2022-08-16T22:54:40.968Z,7.17
2022-08-16T22:56:52.957Z,7.13
2022-08-16T22:59:25.018Z,6.37
2022-08-16T23:01:53.605Z,6.43
2022-08-16T23:04:21.900Z,7.87
2022-08-16T23:06:49.744Z,7.67
2022-08-16T23:09:17.599Z,7.90
2022-08-16T23:11:45.961Z,7.03
2022-08-16T23:14:16.398Z,6.90
2022-08-16T23:16:47.952Z,6.73
2022-08-16T23:19:17.507Z,7.50
2022-08-16T23:21:48.301Z,6.13
2022-08-16T23:24:17.724Z,6.17
2022-08-16T23:26:48.812Z,9.33
2022-08-16T23:29:24.691Z,8.13
2022-08-16T23:31:59.512Z,6.43
2022-08-16T23:34:28.435Z,8.80
2022-08-16T23:36:56.772Z,8.87
2022-08-16T23:39:25.316Z,6.80
2022-08-16T23:41:53.266Z,8.17
2022-08-16T23:44:42.347Z,7.63
2022-08-16T23:47:10.981Z,9.47
2022-08-16T23:49:57.260Z,8.13
2022-08-16T23:52:53.986Z,8.73
2022-08-16T23:55:17.405Z,8.50
2022-08-16T23:57:47.723Z,7.00
